Eastside, Alabama
Current Conditions -  °F | °C
As of 4:53 PM on Tuesday 25 Nov 2014 (Local Time) from KTCL Reporting Station
Clear Clear  
Wind Chill: 11°   Ceiling: Unl
Heat Index: 11°   Visibility: 10mi
Dew Point: -2°   Wind: 6mph
Humidity: 40%   Direction: 300°WNW
Pressure: 30.14"   Gusts: NA
Location:  33.2198°N, 87.4638°W
Report Text: KTCL 252253Z 30005KT 10SM CLR 11/M02 A3014 RMK AO2 SLP205 T01111022
Loading
Personal Weather Stations






























Interactive Weather Map New forecast layout! Learn more

10-Day Weather Forecast

Advertisements
Track Severe Weather on mobile